Time;durP1;ratioP1;P1;durP2;ratioP2;P2;SDS_P1;SDS_P2;PMS_P1;PMS_P2;Temp;Humidity;BMP_temperature;BMP_pressure;BME280_temperature;BME280_humidity;BME280_pressure;Samples;Min_cycle;Max_cycle;Signal;HPM_P1;HPM_P2
2021/12/19 00:00:40;;;;;;;14.10;5.90;;;;;;;3.94;100.00;99809.17;102199;1316;72537;-65
2021/12/19 00:04:01;;;;;;;11.50;4.60;;;;;;;3.93;100.00;99814.67;102179;1311;67217;-65
2021/12/19 00:09:55;;;;;;;10.50;5.00;;;;;;;3.97;100.00;99795.48;102335;1310;59653;-65
2021/12/19 00:12:43;;;;;;;12.70;5.20;;;;;;;3.98;100.00;99791.23;102108;1317;59405;-65
2021/12/19 00:15:31;;;;;;;11.20;5.20;;;;;;;3.99;100.00;99782.23;102191;1311;70712;-65
2021/12/19 00:18:19;;;;;;;12.50;6.10;;;;;;;4.00;100.00;99772.14;102418;1314;67468;-66
2021/12/19 00:21:07;;;;;;;14.50;5.50;;;;;;;4.03;100.00;99760.60;102091;1316;73401;-65
2021/12/19 00:23:59;;;;;;;10.60;4.60;;;;;;;4.06;100.00;99770.44;102139;1314;59431;-66
2021/12/19 00:26:47;;;;;;;12.10;5.10;;;;;;;4.07;100.00;99770.70;102343;1313;59378;-65
2021/12/19 00:29:35;;;;;;;13.20;5.60;;;;;;;4.09;100.00;99766.39;102307;1311;72958;-65
2021/12/19 00:32:22;;;;;;;11.40;5.40;;;;;;;4.12;100.00;99773.42;102235;1313;65996;-65
2021/12/19 00:35:10;;;;;;;12.90;5.80;;;;;;;4.12;100.00;99767.44;102621;1316;71779;-65
2021/12/19 00:37:58;;;;;;;10.00;4.50;;;;;;;4.15;100.00;99770.64;102018;1317;59729;-65
2021/12/19 00:40:46;;;;;;;10.10;4.00;;;;;;;4.18;100.00;99764.33;102390;1314;59341;-65
2021/12/19 00:43:36;;;;;;;12.80;4.90;;;;;;;4.19;100.00;99765.70;102130;1316;74096;-65
2021/12/19 00:46:26;;;;;;;12.30;4.70;;;;;;;4.20;100.00;99753.84;102244;1316;68825;-66
2021/12/19 00:49:15;;;;;;;12.80;4.60;;;;;;;4.23;100.00;99757.18;102449;1314;73300;-66
2021/12/19 00:52:04;;;;;;;11.10;4.20;;;;;;;4.25;100.00;99764.63;102428;1314;59385;-66
2021/12/19 00:54:51;;;;;;;12.40;4.60;;;;;;;4.27;100.00;99763.61;102434;1317;60679;-66
2021/12/19 00:57:39;;;;;;;14.20;4.80;;;;;;;4.29;100.00;99768.79;102293;1314;72753;-66
2021/12/19 01:00:34;;;;;;;11.60;4.70;;;;;;;4.30;100.00;99765.40;102202;1317;68047;-66
2021/12/19 01:03:23;;;;;;;11.30;4.30;;;;;;;4.31;100.00;99758.88;102111;1314;73539;-65
2021/12/19 01:06:11;;;;;;;12.40;5.00;;;;;;;4.32;100.00;99761.58;102193;1314;59378;-66
2021/12/19 01:08:59;;;;;;;12.30;5.00;;;;;;;4.32;100.00;99758.95;100486;1313;1003514;-66
2021/12/19 01:11:48;;;;;;;17.00;5.70;;;;;;;4.33;100.00;99756.45;102372;1313;72261;-66
2021/12/19 01:14:38;;;;;;;12.50;5.30;;;;;;;4.35;100.00;99747.58;101937;1313;68393;-66
2021/12/19 01:17:25;;;;;;;13.10;5.10;;;;;;;4.37;100.00;99751.98;102176;1313;73061;-66
2021/12/19 01:20:19;;;;;;;15.30;5.00;;;;;;;4.38;100.00;99750.89;102360;1313;59382;-66
2021/12/19 01:23:08;;;;;;;11.90;4.60;;;;;;;4.37;100.00;99747.59;102392;1316;60734;-66
2021/12/19 01:25:55;;;;;;;13.70;5.10;;;;;;;4.35;100.00;99745.26;102266;1316;73016;-66
2021/12/19 01:28:43;;;;;;;14.10;4.70;;;;;;;4.33;100.00;99740.98;102509;1313;67118;-66
2021/12/19 01:31:30;;;;;;;16.00;5.10;;;;;;;4.32;100.00;99734.02;102721;1314;71685;-65
2021/12/19 01:34:18;;;;;;;15.90;5.10;;;;;;;4.32;100.00;99716.83;102569;1310;59385;-65
2021/12/19 01:37:05;;;;;;;13.20;4.30;;;;;;;4.32;100.00;99721.58;102591;1313;60642;-65
2021/12/19 01:39:52;;;;;;;10.60;3.90;;;;;;;4.29;100.00;99718.38;102239;1311;72747;-65
2021/12/19 01:42:42;;;;;;;15.30;5.10;;;;;;;4.28;100.00;99728.78;102325;1313;68115;-65
2021/12/19 01:45:38;;;;;;;15.30;5.00;;;;;;;4.29;100.00;99729.98;102413;1314;72846;-65
2021/12/19 01:48:26;;;;;;;14.60;3.90;;;;;;;4.29;100.00;99726.47;102151;1314;59418;-65
2021/12/19 01:51:14;;;;;;;16.00;5.10;;;;;;;4.28;100.00;99716.16;102342;1311;60553;-65
2021/12/19 01:54:02;;;;;;;14.90;4.70;;;;;;;4.28;100.00;99701.06;102394;1314;72566;-65
2021/12/19 01:56:49;;;;;;;17.00;4.60;;;;;;;4.28;100.00;99687.88;102384;1310;68576;-65
2021/12/19 01:59:37;;;;;;;12.30;3.90;;;;;;;4.29;100.00;99672.87;102570;1317;73488;-65
2021/12/19 02:02:24;;;;;;;13.00;4.50;;;;;;;4.26;99.98;99654.97;102552;1314;59352;-65
2021/12/19 02:05:12;;;;;;;17.60;4.80;;;;;;;4.23;100.00;99670.45;102389;1314;60901;-65
2021/12/19 02:08:01;;;;;;;13.60;4.60;;;;;;;4.21;100.00;99664.71;102350;1317;72714;-65
2021/12/19 02:10:49;;;;;;;14.50;4.90;;;;;;;4.21;100.00;99670.68;102236;1314;68202;-65
2021/12/19 02:13:38;;;;;;;12.50;4.70;;;;;;;4.21;99.96;99679.34;102282;1310;73469;-65
2021/12/19 02:16:25;;;;;;;14.50;4.30;;;;;;;4.20;99.96;99687.77;102616;1317;59446;-65
2021/12/19 02:19:13;;;;;;;16.60;4.70;;;;;;;4.19;99.99;99692.95;102610;1310;60017;-65
2021/12/19 02:22:00;;;;;;;15.50;5.00;;;;;;;4.20;100.00;99696.27;102303;1313;72589;-65
2021/12/19 02:24:47;;;;;;;11.70;4.40;;;;;;;4.21;99.90;99685.83;102350;1314;66763;-65
2021/12/19 02:27:35;;;;;;;13.80;4.10;;;;;;;4.21;99.74;99672.09;102070;1314;73425;-65
2021/12/19 02:30:22;;;;;;;10.50;3.40;;;;;;;4.23;99.28;99663.92;102517;1313;59425;-65
2021/12/19 02:33:15;;;;;;;11.60;3.50;;;;;;;4.23;99.05;99655.30;102426;1317;59449;-65
2021/12/19 02:36:39;;;;;;;12.90;3.90;;;;;;;4.24;98.89;99653.14;102194;1314;74348;-65
2021/12/19 02:48:19;;;;;;;11.40;3.20;;;;;;;4.31;98.06;99649.25;102331;1314;59663;-65
2021/12/19 02:51:06;;;;;;;10.40;3.40;;;;;;;4.31;97.81;99648.17;102378;1319;72407;-65
2021/12/19 02:53:56;;;;;;;11.30;3.10;;;;;;;4.33;97.81;99651.98;102113;1313;66883;-65
2021/12/19 02:56:44;;;;;;;12.70;3.70;;;;;;;4.32;97.57;99644.64;102463;1311;73044;-65
2021/12/19 02:59:32;;;;;;;11.80;3.30;;;;;;;4.33;97.41;99633.16;102316;1313;59418;-65
2021/12/19 03:02:19;;;;;;;7.90;2.50;;;;;;;4.34;97.49;99631.14;102538;1313;60975;-65
2021/12/19 03:05:08;;;;;;;9.70;3.00;;;;;;;4.35;97.13;99630.94;102503;1317;70699;-66
2021/12/19 03:07:56;;;;;;;15.50;3.70;;;;;;;4.35;97.21;99639.52;102528;1314;68272;-65
2021/12/19 03:11:21;;;;;;;12.80;3.40;;;;;;;4.35;97.03;99646.20;102141;1316;72867;-65
2021/12/19 03:20:10;;;;;;;11.70;2.70;;;;;;;4.38;96.62;99672.58;102555;1314;72659;-65
2021/12/19 03:22:58;;;;;;;13.30;3.30;;;;;;;4.36;96.22;99677.73;102303;1313;68166;-65
2021/12/19 03:25:46;;;;;;;11.40;2.70;;;;;;;4.37;95.95;99668.23;102340;1317;71502;-65
2021/12/19 03:28:33;;;;;;;12.10;3.00;;;;;;;4.37;95.91;99667.50;102316;1314;59414;-65
2021/12/19 03:31:20;;;;;;;8.00;2.20;;;;;;;4.37;95.67;99658.02;102805;1317;59939;-65
2021/12/19 03:34:09;;;;;;;9.50;2.60;;;;;;;4.36;95.66;99647.57;102600;1313;71353;-65
2021/12/19 03:36:57;;;;;;;11.60;2.80;;;;;;;4.35;95.75;99645.30;102511;1311;66842;-65
2021/12/19 03:39:56;;;;;;;9.60;2.30;;;;;;;4.37;95.69;99636.05;102284;1313;73416;-65
2021/12/19 03:42:47;;;;;;;10.90;2.90;;;;;;;4.36;95.25;99625.58;102223;1314;59428;-66
2021/12/19 03:45:36;;;;;;;9.20;2.70;;;;;;;4.34;95.19;99619.92;102337;1313;60740;-65
2021/12/19 03:48:23;;;;;;;11.30;3.00;;;;;;;4.29;95.16;99606.52;102262;1310;70304;-65
2021/12/19 03:51:12;;;;;;;9.20;2.70;;;;;;;4.24;95.30;99603.09;102089;1308;68247;-65
2021/12/19 03:53:59;;;;;;;8.20;2.50;;;;;;;4.20;95.47;99612.63;102096;1314;72812;-66
2021/12/19 03:56:47;;;;;;;9.30;2.70;;;;;;;4.15;95.44;99603.80;100236;1316;1003267;-65
2021/12/19 03:59:35;;;;;;;10.90;2.60;;;;;;;4.10;95.55;99596.90;102404;1316;59571;-65
2021/12/19 04:02:27;;;;;;;9.10;2.50;;;;;;;4.02;95.78;99583.29;102259;1317;72749;-65
2021/12/19 04:05:14;;;;;;;10.40;2.80;;;;;;;3.97;95.99;99589.38;102323;1314;68571;-65
2021/12/19 04:08:02;;;;;;;11.20;2.50;;;;;;;3.97;96.47;99618.56;101708;1317;1003838;-65
2021/12/19 04:10:51;;;;;;;10.30;2.60;;;;;;;3.98;96.43;99632.02;102227;1313;59407;-65
2021/12/19 04:13:38;;;;;;;10.90;2.20;;;;;;;3.97;96.26;99624.84;102138;1314;60618;-65
2021/12/19 04:16:26;;;;;;;9.70;2.30;;;;;;;3.98;96.10;99622.20;102228;1313;72579;-65
2021/12/19 04:19:13;;;;;;;8.90;2.50;;;;;;;3.96;96.11;99609.48;102554;1311;67488;-65
2021/12/19 04:22:01;;;;;;;11.20;2.70;;;;;;;3.93;95.86;99602.45;102452;1313;73365;-65
2021/12/19 04:24:48;;;;;;;12.60;3.00;;;;;;;3.91;95.75;99609.06;102693;1310;59564;-65
2021/12/19 04:27:36;;;;;;;8.20;2.10;;;;;;;3.89;95.77;99598.29;102195;1311;60148;-65
2021/12/19 04:30:26;;;;;;;12.40;2.30;;;;;;;3.86;96.06;99602.48;101505;1314;1003515;-65
2021/12/19 04:33:13;;;;;;;11.30;2.60;;;;;;;3.83;96.13;99594.56;102399;1316;66867;-65
2021/12/19 04:36:04;;;;;;;8.50;2.40;;;;;;;3.79;96.24;99593.95;102365;1310;71545;-65
2021/12/19 04:39:19;;;;;;;11.70;2.30;;;;;;;3.77;96.53;99594.23;102370;1311;59369;-65
2021/12/19 04:54:35;;;;;;;7.40;2.10;;;;;;;3.68;96.58;99602.61;102443;1310;59431;-65
2021/12/19 05:00:19;;;;;;;7.80;2.20;;;;;;;3.62;97.02;99599.81;102432;1311;72946;-66
2021/12/19 05:03:19;;;;;;;12.50;2.50;;;;;;;3.59;97.29;99609.98;102178;1310;66863;-65
2021/12/19 05:15:25;;;;;;;9.00;2.40;;;;;;;3.56;97.22;99605.39;102725;1313;73017;-66
2021/12/19 05:18:12;;;;;;;9.00;2.20;;;;;;;3.52;97.13;99599.98;102314;1316;68243;-65
2021/12/19 05:21:05;;;;;;;8.20;2.00;;;;;;;3.49;97.44;99596.51;102179;1311;70374;-65
2021/12/19 05:26:48;;;;;;;7.50;2.00;;;;;;;3.44;97.66;99605.89;102367;1310;59248;-65
2021/12/19 05:29:37;;;;;;;9.00;2.20;;;;;;;3.46;97.81;99601.08;102488;1310;71622;-68
2021/12/19 05:32:24;;;;;;;8.40;2.70;;;;;;;3.47;97.75;99593.48;102681;1311;67750;-65
2021/12/19 05:35:16;;;;;;;11.20;2.20;;;;;;;3.46;97.80;99596.49;102633;1310;73617;-65
2021/12/19 05:47:23;;;;;;;8.10;1.70;;;;;;;3.49;97.65;99587.89;102729;1309;65840;-66
2021/12/19 05:50:13;;;;;;;8.20;1.90;;;;;;;3.48;97.64;99584.27;102552;1311;71588;-66
2021/12/19 05:53:00;;;;;;;8.00;1.80;;;;;;;3.46;97.58;99585.80;102358;1310;59368;-65
2021/12/19 05:55:47;;;;;;;8.20;2.60;;;;;;;3.44;97.54;99576.08;102513;1314;59332;-66
2021/12/19 05:58:34;;;;;;;13.30;2.40;;;;;;;3.43;97.34;99570.91;102507;1310;73974;-65
2021/12/19 06:01:22;;;;;;;9.80;2.20;;;;;;;3.35;97.46;99570.56;102482;1314;282351;-65
2021/12/19 06:04:10;;;;;;;9.10;2.10;;;;;;;3.36;97.61;99568.25;102229;1311;73336;-65
2021/12/19 06:06:57;;;;;;;8.10;2.50;;;;;;;3.32;97.40;99560.76;102125;1310;59400;-66
2021/12/19 06:09:44;;;;;;;7.20;1.80;;;;;;;3.30;97.07;99560.73;102359;1310;59422;-65
2021/12/19 06:12:32;;;;;;;7.30;2.10;;;;;;;3.30;96.93;99568.27;102667;1310;70317;-65
2021/12/19 06:15:20;;;;;;;8.30;1.60;;;;;;;3.31;97.01;99576.41;102515;1310;66812;-65
2021/12/19 06:18:07;;;;;;;8.20;1.80;;;;;;;3.31;97.00;99575.23;102193;1311;71825;-66
2021/12/19 06:20:55;;;;;;;10.80;2.10;;;;;;;3.29;97.00;99567.27;102530;1311;59331;-66
2021/12/19 06:23:43;;;;;;;9.20;2.10;;;;;;;3.24;97.41;99567.15;102835;1311;59579;-65
2021/12/19 06:26:35;;;;;;;10.60;2.20;;;;;;;3.23;97.50;99573.02;102193;1309;72857;-65
2021/12/19 06:29:23;;;;;;;8.80;2.30;;;;;;;3.24;97.64;99579.29;102361;1314;68051;-65
2021/12/19 06:32:12;;;;;;;5.80;1.80;;;;;;;3.27;97.86;99569.84;102408;1310;72810;-66
2021/12/19 06:35:09;;;;;;;7.00;2.10;;;;;;;3.30;97.88;99576.67;102665;1314;59425;-66
2021/12/19 06:37:57;;;;;;;6.40;2.00;;;;;;;3.33;97.81;99578.07;101330;1314;1003428;-65
2021/12/19 06:40:45;;;;;;;7.60;2.10;;;;;;;3.36;97.67;99574.94;102742;1310;72292;-65
2021/12/19 06:43:33;;;;;;;11.40;2.10;;;;;;;3.39;97.54;99572.11;102534;1310;67686;-65
2021/12/19 06:46:20;;;;;;;7.80;2.00;;;;;;;3.43;97.42;99572.47;102518;1314;72148;-65
2021/12/19 06:49:09;;;;;;;8.40;2.10;;;;;;;3.47;97.19;99575.76;102514;1311;59453;-66
2021/12/19 06:51:56;;;;;;;7.80;2.10;;;;;;;3.50;96.98;99578.73;102788;1310;59410;-65
2021/12/19 06:54:43;;;;;;;10.60;2.30;;;;;;;3.51;96.84;99584.30;102118;1314;72795;-65
2021/12/19 06:57:31;;;;;;;8.90;2.00;;;;;;;3.50;96.61;99577.67;102354;1313;68111;-65
2021/12/19 07:00:25;;;;;;;9.80;2.00;;;;;;;3.51;96.56;99573.38;102269;1310;73542;-65
2021/12/19 07:03:14;;;;;;;6.40;1.70;;;;;;;3.55;96.57;99557.91;102539;1311;59371;-66
2021/12/19 07:06:02;;;;;;;6.70;1.90;;;;;;;3.59;96.38;99547.54;102494;1313;59615;-66
2021/12/19 07:08:49;;;;;;;9.30;2.10;;;;;;;3.60;96.14;99541.69;102667;1310;72246;-65
2021/12/19 07:11:36;;;;;;;8.60;2.10;;;;;;;3.60;96.18;99548.16;102554;1311;68171;-65
2021/12/19 07:14:24;;;;;;;7.00;2.00;;;;;;;3.61;96.19;99551.83;102765;1311;73204;-66
2021/12/19 07:17:12;;;;;;;11.30;2.30;;;;;;;3.62;96.24;99553.31;102412;1310;59348;-65
2021/12/19 07:19:59;;;;;;;7.70;2.10;;;;;;;3.64;96.14;99554.23;101810;1311;1003080;-65
2021/12/19 07:22:47;;;;;;;8.70;1.90;;;;;;;3.66;96.00;99550.44;102531;1313;73572;-65
2021/12/19 07:25:34;;;;;;;8.00;1.80;;;;;;;3.68;95.81;99537.89;102519;1310;68267;-65
2021/12/19 07:28:22;;;;;;;6.90;1.90;;;;;;;3.68;95.87;99539.13;99713;1310;1005708;-66
2021/12/19 07:31:09;;;;;;;6.30;1.80;;;;;;;3.66;95.73;99535.19;102460;1310;59385;-66
2021/12/19 07:33:58;;;;;;;7.80;2.00;;;;;;;3.65;95.80;99534.59;102273;1310;60806;-65
2021/12/19 07:36:52;;;;;;;10.30;1.90;;;;;;;3.65;95.72;99528.59;102501;1311;71346;-65
2021/12/19 07:39:41;;;;;;;8.60;1.80;;;;;;;3.66;95.82;99526.95;102613;1310;68210;-65
2021/12/19 07:42:28;;;;;;;7.00;2.20;;;;;;;3.67;95.59;99523.05;102489;1310;71767;-65
2021/12/19 07:45:16;;;;;;;8.90;2.10;;;;;;;3.65;95.68;99522.45;102476;1309;59313;-66
2021/12/19 07:48:04;;;;;;;11.20;2.30;;;;;;;3.61;95.45;99515.66;102289;1310;59364;-65
2021/12/19 07:50:52;;;;;;;9.10;2.70;;;;;;;3.58;95.55;99522.86;102377;1314;72594;-66
2021/12/19 07:53:39;;;;;;;9.70;2.20;;;;;;;3.56;95.65;99523.14;102515;1309;66673;-66
2021/12/19 07:56:26;;;;;;;9.20;2.40;;;;;;;3.57;95.69;99527.79;102978;1310;73377;-65
2021/12/19 07:59:15;;;;;;;9.70;2.50;;;;;;;3.60;95.58;99530.44;102443;1310;59305;-65
2021/12/19 08:02:04;;;;;;;9.70;2.40;;;;;;;3.63;95.88;99532.03;102423;1311;59399;-65
2021/12/19 08:04:52;;;;;;;8.00;2.10;;;;;;;3.69;96.22;99538.52;102474;1311;72419;-65
2021/12/19 08:07:40;;;;;;;10.70;2.60;;;;;;;3.70;95.51;99536.88;102573;1310;67178;-66
2021/12/19 08:13:19;;;;;;;7.30;2.30;;;;;;;3.80;95.34;99540.38;102657;1310;59460;-65
2021/12/19 08:16:07;;;;;;;12.60;3.80;;;;;;;3.92;95.18;99537.02;102205;1310;60483;-65
2021/12/19 08:18:54;;;;;;;13.70;3.70;;;;;;;4.02;94.65;99527.10;102547;1314;73051;-66
2021/12/19 08:21:45;;;;;;;14.00;4.20;;;;;;;4.11;93.98;99526.27;102605;1311;67295;-65
2021/12/19 08:24:33;;;;;;;13.40;4.20;;;;;;;4.18;93.96;99520.61;102721;1310;73078;-65
2021/12/19 08:27:20;;;;;;;13.50;3.70;;;;;;;4.21;93.54;99514.41;102516;1310;59320;-65
2021/12/19 08:30:13;;;;;;;11.50;3.00;;;;;;;4.24;93.46;99514.08;102533;1310;59378;-65
2021/12/19 08:33:00;;;;;;;8.80;2.30;;;;;;;4.23;93.06;99513.42;102572;1310;72425;-65
2021/12/19 08:35:48;;;;;;;8.20;2.30;;;;;;;4.25;92.64;99512.60;102706;1310;66745;-65
2021/12/19 08:38:36;;;;;;;8.20;2.30;;;;;;;4.30;92.51;99514.26;102733;1310;72950;-66
2021/12/19 08:41:24;;;;;;;8.70;1.80;;;;;;;4.34;92.03;99512.41;102401;1310;59276;-66
2021/12/19 08:44:12;;;;;;;6.60;1.90;;;;;;;4.39;91.31;99510.55;102742;1310;60658;-65
2021/12/19 08:47:00;;;;;;;7.20;2.00;;;;;;;4.41;90.53;99512.34;102557;1311;72564;-67
2021/12/19 08:49:48;;;;;;;7.50;1.70;;;;;;;4.45;90.63;99514.26;102576;1310;68078;-65
2021/12/19 08:52:37;;;;;;;8.40;2.20;;;;;;;4.46;90.26;99514.88;102510;1313;71858;-65
2021/12/19 08:55:25;;;;;;;7.90;1.90;;;;;;;4.46;89.56;99513.61;102764;1316;59415;-66
2021/12/19 08:58:13;;;;;;;6.80;1.70;;;;;;;4.51;90.23;99522.50;102476;1310;59381;-67
2021/12/19 09:01:02;;;;;;;6.50;2.00;;;;;;;4.51;89.79;99517.15;102106;1311;72483;-65
2021/12/19 09:03:50;;;;;;;8.60;2.00;;;;;;;4.52;89.45;99520.31;102323;1310;66808;-66
2021/12/19 09:06:37;;;;;;;7.00;2.10;;;;;;;4.51;89.34;99521.92;102167;1310;72833;-65
2021/12/19 09:09:26;;;;;;;8.90;2.10;;;;;;;4.53;89.32;99523.77;101103;1311;1003473;-66
2021/12/19 09:12:16;;;;;;;7.60;2.10;;;;;;;4.55;88.76;99519.39;102273;1310;60704;-66
2021/12/19 09:15:06;;;;;;;6.40;2.00;;;;;;;4.57;88.36;99517.19;102412;1311;72595;-66
2021/12/19 09:17:54;;;;;;;6.40;2.00;;;;;;;4.57;88.37;99512.43;102359;1313;68379;-65
2021/12/19 09:20:41;;;;;;;7.00;2.40;;;;;;;4.58;88.49;99514.98;102741;1311;73791;-64
2021/12/19 09:23:29;;;;;;;7.30;2.40;;;;;;;4.59;88.39;99513.69;102152;1312;59425;-65
2021/12/19 09:26:17;;;;;;;8.20;2.20;;;;;;;4.60;88.56;99511.91;102407;1310;60682;-65
2021/12/19 09:29:05;;;;;;;9.20;1.90;;;;;;;4.62;88.04;99512.11;102223;1310;72783;-65
2021/12/19 09:31:53;;;;;;;9.20;2.20;;;;;;;4.65;87.79;99509.69;102486;1314;67526;-66
2021/12/19 09:34:43;;;;;;;7.70;1.90;;;;;;;4.66;87.76;99507.66;102233;1310;73179;-65
2021/12/19 09:37:35;;;;;;;7.60;2.00;;;;;;;4.65;87.44;99504.36;102550;1309;59329;-65
2021/12/19 09:40:32;;;;;;;7.20;1.70;;;;;;;4.66;87.58;99500.26;102367;1316;59445;-65
2021/12/19 09:43:41;;;;;;;6.60;1.70;;;;;;;4.70;87.35;99493.52;102572;1310;72648;-66
2021/12/19 09:46:37;;;;;;;7.30;2.10;;;;;;;4.78;87.02;99485.33;103012;1310;66553;-65
2021/12/19 09:49:24;;;;;;;7.40;2.00;;;;;;;4.84;87.07;99484.59;102703;1313;73319;-65
2021/12/19 09:52:14;;;;;;;8.10;2.00;;;;;;;4.90;86.60;99475.56;102348;1310;59314;-66
2021/12/19 09:55:04;;;;;;;7.10;1.70;;;;;;;4.98;85.94;99456.23;102591;1309;59345;-66
2021/12/19 09:57:53;;;;;;;8.70;2.50;;;;;;;5.06;85.44;99456.25;102575;1310;71306;-65
2021/12/19 10:00:41;;;;;;;8.10;2.50;;;;;;;5.21;85.17;99464.31;102741;1310;67485;-65
2021/12/19 10:03:29;;;;;;;9.20;2.70;;;;;;;5.23;84.44;99462.21;102248;1310;71056;-65
2021/12/19 10:06:27;;;;;;;9.70;2.60;;;;;;;5.23;84.21;99459.22;102674;1311;59397;-65
2021/12/19 10:09:19;;;;;;;8.70;2.50;;;;;;;5.16;83.39;99460.23;102978;1309;59427;-65
2021/12/19 10:15:42;;;;;;;8.80;2.20;;;;;;;5.13;84.51;99458.46;102370;1316;67031;-65
2021/12/19 10:18:30;;;;;;;8.30;2.10;;;;;;;5.11;84.82;99460.52;102523;1310;73222;-66
2021/12/19 10:21:20;;;;;;;11.30;2.50;;;;;;;5.07;84.10;99467.83;102384;1311;59341;-65
2021/12/19 10:24:10;;;;;;;8.90;2.60;;;;;;;5.02;84.48;99464.10;102143;1310;59421;-65
2021/12/19 10:26:59;;;;;;;9.40;2.40;;;;;;;5.02;84.28;99458.64;102482;1310;71134;-65
2021/12/19 10:29:47;;;;;;;8.70;2.30;;;;;;;5.02;83.59;99452.34;102491;1310;67803;-66
2021/12/19 10:32:35;;;;;;;11.90;2.90;;;;;;;5.08;83.36;99441.03;102377;1310;73217;-65
2021/12/19 10:35:41;;;;;;;8.90;2.30;;;;;;;5.14;82.01;99443.44;102527;1310;59325;-66
2021/12/19 10:38:38;;;;;;;7.30;1.70;;;;;;;5.20;81.84;99452.91;102651;1310;60753;-65
2021/12/19 10:41:33;;;;;;;7.10;1.60;;;;;;;5.20;80.12;99456.60;103076;1310;71360;-65
2021/12/19 10:47:38;;;;;;;7.50;1.60;;;;;;;5.19;78.22;99452.80;102710;1310;72969;-65
2021/12/19 10:50:47;;;;;;;7.50;1.70;;;;;;;5.23;78.48;99450.97;102891;1310;59317;-66
2021/12/19 10:53:40;;;;;;;5.90;1.40;;;;;;;5.22;74.70;99441.02;102493;1310;59333;-65
2021/12/19 10:56:31;;;;;;;5.50;1.30;;;;;;;5.19;74.17;99432.98;102524;1310;71220;-65
2021/12/19 10:59:19;;;;;;;6.30;1.40;;;;;;;5.16;72.74;99432.80;102840;1310;67240;-66
2021/12/19 11:02:06;;;;;;;6.20;1.40;;;;;;;5.15;73.42;99438.99;102271;1313;73200;-66
2021/12/19 11:04:56;;;;;;;5.50;1.40;;;;;;;5.14;71.52;99430.95;102792;1310;59288;-65
2021/12/19 11:08:08;;;;;;;5.90;1.30;;;;;;;5.16;71.28;99428.02;102508;1310;60877;-65
2021/12/19 11:10:55;;;;;;;7.20;1.30;;;;;;;5.16;70.34;99412.71;102388;1314;71873;-65
2021/12/19 11:13:42;;;;;;;6.80;1.70;;;;;;;5.11;69.91;99397.58;102424;1310;68317;-66
2021/12/19 11:16:29;;;;;;;7.10;1.40;;;;;;;5.04;69.01;99394.52;102349;1310;71663;-65
2021/12/19 11:19:17;;;;;;;5.80;1.30;;;;;;;5.00;69.43;99395.86;102611;1310;59393;-65
2021/12/19 11:22:28;;;;;;;6.40;1.40;;;;;;;4.97;69.74;99397.10;102638;1311;59601;-64
2021/12/19 11:25:16;;;;;;;6.40;1.50;;;;;;;4.93;69.11;99397.48;102439;1310;72440;-65
2021/12/19 11:28:04;;;;;;;6.10;1.50;;;;;;;4.92;68.13;99400.40;102627;1313;68272;-66
2021/12/19 11:30:54;;;;;;;7.60;1.40;;;;;;;4.92;68.52;99394.39;102585;1310;74521;-66
2021/12/19 11:34:19;;;;;;;7.50;1.60;;;;;;;4.92;67.36;99394.03;102665;1310;59426;-65
2021/12/19 11:37:06;;;;;;;6.70;1.60;;;;;;;4.92;68.09;99382.83;102325;1311;60399;-65
2021/12/19 11:39:56;;;;;;;5.90;1.50;;;;;;;4.93;68.69;99385.22;102530;1310;70527;-68
2021/12/19 11:42:43;;;;;;;6.80;1.40;;;;;;;4.93;68.42;99389.05;102542;1310;68357;-65
2021/12/19 11:48:34;;;;;;;6.10;1.80;;;;;;;4.85;67.06;99399.45;103118;1310;59348;-64
2021/12/19 11:51:22;;;;;;;6.30;1.70;;;;;;;4.79;67.90;99405.95;102595;1310;59280;-65
2021/12/19 11:54:17;;;;;;;5.80;1.50;;;;;;;4.71;68.21;99411.23;102907;1311;73094;-65
2021/12/19 11:57:21;;;;;;;6.50;1.60;;;;;;;4.65;69.43;99407.55;102381;1313;66467;-65
2021/12/19 12:00:43;;;;;;;6.20;1.90;;;;;;;4.83;67.82;99400.76;102603;1311;71517;-65
2021/12/19 12:03:39;;;;;;;4.40;1.10;;;;;;;5.66;65.73;99395.90;102856;1310;59412;-65
2021/12/19 12:06:38;;;;;;;5.50;1.40;;;;;;;5.59;64.64;99398.42;102707;1310;59428;-66
2021/12/19 12:09:39;;;;;;;6.50;1.50;;;;;;;5.41;64.41;99404.02;102396;1314;72751;-65
2021/12/19 12:12:34;;;;;;;8.00;1.70;;;;;;;5.34;65.43;99404.67;102410;1310;68221;-65
2021/12/19 12:15:32;;;;;;;6.30;1.50;;;;;;;5.26;65.42;99402.73;102642;1311;72988;-66
2021/12/19 12:18:33;;;;;;;6.00;1.40;;;;;;;5.15;65.81;99400.81;102302;1310;59311;-67
2021/12/19 12:21:32;;;;;;;7.40;1.50;;;;;;;5.06;66.05;99400.17;102198;1310;59343;-66
2021/12/19 12:24:19;;;;;;;7.60;1.60;;;;;;;4.95;66.23;99397.02;102412;1311;72601;-66
2021/12/19 12:27:12;;;;;;;6.60;1.50;;;;;;;4.83;66.14;99391.84;102815;1313;68558;-66
2021/12/19 12:30:04;;;;;;;6.70;1.60;;;;;;;4.96;66.66;99377.45;102429;1311;71689;-66
2021/12/19 12:32:52;;;;;;;6.40;1.40;;;;;;;5.06;66.62;99361.88;102691;1310;59297;-66
2021/12/19 12:35:43;;;;;;;5.40;1.70;;;;;;;5.07;66.03;99360.38;102869;1310;59295;-66
2021/12/19 12:38:33;;;;;;;6.70;1.40;;;;;;;4.94;65.90;99370.19;102686;1310;72464;-67
2021/12/19 12:44:22;;;;;;;5.60;1.40;;;;;;;4.56;66.65;99379.12;102542;1311;73129;-67
2021/12/19 12:47:14;;;;;;;5.40;1.60;;;;;;;4.39;66.88;99395.86;102474;1311;59425;-66
2021/12/19 12:50:05;;;;;;;5.60;1.40;;;;;;;4.23;67.08;99405.77;102658;1310;59411;-66
2021/12/19 12:52:54;;;;;;;7.00;1.60;;;;;;;4.16;67.50;99401.48;102679;1310;73427;-67
2021/12/19 12:56:10;;;;;;;7.20;1.80;;;;;;;4.10;67.88;99404.82;102432;1310;68279;-67
2021/12/19 12:58:59;;;;;;;7.10;1.50;;;;;;;4.02;68.06;99399.86;102690;1310;72883;-67
2021/12/19 13:01:54;;;;;;;5.90;1.40;;;;;;;3.93;68.25;99396.70;102648;1309;60123;-67
2021/12/19 13:04:51;;;;;;;6.70;1.40;;;;;;;3.86;69.00;99396.80;102491;1310;59468;-66
2021/12/19 13:07:39;;;;;;;6.20;1.40;;;;;;;3.86;69.15;99389.61;102885;1310;72622;-66
2021/12/19 13:10:27;;;;;;;5.60;1.50;;;;;;;3.84;69.29;99398.13;102470;1311;68501;-66
2021/12/19 13:13:17;;;;;;;6.30;1.40;;;;;;;3.88;68.79;99399.48;101854;1310;1003472;-65
2021/12/19 13:16:05;;;;;;;6.00;1.60;;;;;;;3.89;68.63;99390.29;102242;1310;59419;-65
2021/12/19 13:18:58;;;;;;;8.10;1.70;;;;;;;3.90;68.98;99400.08;102539;1310;61151;-65
2021/12/19 13:21:55;;;;;;;7.00;1.50;;;;;;;3.88;68.62;99400.55;102905;1310;72456;-67
2021/12/19 13:24:46;;;;;;;5.80;1.50;;;;;;;3.87;68.02;99399.57;102560;1310;68236;-65
2021/12/19 13:27:41;;;;;;;7.30;1.60;;;;;;;3.87;68.25;99398.48;102196;1314;72975;-65
2021/12/19 13:30:36;;;;;;;6.70;1.50;;;;;;;3.87;68.36;99403.38;102395;1314;59670;-65
2021/12/19 13:33:28;;;;;;;5.20;1.30;;;;;;;3.86;67.89;99397.67;103067;1311;60536;-65
2021/12/19 13:36:16;;;;;;;5.70;1.70;;;;;;;3.85;66.92;99399.14;102768;1310;72414;-65
2021/12/19 13:39:15;;;;;;;7.00;1.50;;;;;;;3.80;67.21;99401.54;102593;1310;68546;-65
2021/12/19 13:42:12;;;;;;;5.70;1.30;;;;;;;3.76;67.49;99404.59;102520;1310;71648;-67
2021/12/19 13:45:49;;;;;;;5.20;1.40;;;;;;;3.72;67.54;99396.23;102369;1311;59332;-68
2021/12/19 13:48:48;;;;;;;5.90;1.60;;;;;;;3.67;68.01;99406.72;102078;1310;1003382;-68
2021/12/19 13:51:37;;;;;;;6.40;1.60;;;;;;;3.62;67.96;99409.30;102861;1310;71103;-67
2021/12/19 13:54:28;;;;;;;7.70;1.50;;;;;;;3.58;67.06;99417.23;102418;1311;66970;-68
2021/12/19 13:57:21;;;;;;;5.30;1.40;;;;;;;3.54;67.02;99409.56;102852;1310;73322;-67
2021/12/19 14:00:34;;;;;;;6.60;1.50;;;;;;;3.51;67.14;99410.28;102274;1310;298301;-67
2021/12/19 14:03:45;;;;;;;5.70;1.30;;;;;;;3.44;67.19;99408.57;102291;1311;59204;-67
2021/12/19 14:06:37;;;;;;;7.00;1.50;;;;;;;3.38;67.70;99407.54;102788;1308;71015;-68
2021/12/19 14:09:24;;;;;;;8.50;1.60;;;;;;;3.32;67.71;99406.81;102780;1310;67074;-67
2021/12/19 14:12:26;;;;;;;6.60;1.40;;;;;;;3.26;67.66;99410.14;102559;1310;73049;-67
2021/12/19 14:15:18;;;;;;;7.40;1.40;;;;;;;3.20;67.28;99409.60;102283;1313;59455;-68
2021/12/19 14:18:37;;;;;;;5.70;1.40;;;;;;;3.16;67.80;99419.34;102299;1310;60629;-64
2021/12/19 14:21:41;;;;;;;6.60;1.60;;;;;;;3.10;68.23;99433.00;102521;1310;72405;-65
2021/12/19 14:24:38;;;;;;;7.10;1.60;;;;;;;3.04;68.18;99431.36;102482;1314;68260;-65
2021/12/19 14:27:38;;;;;;;6.20;1.70;;;;;;;3.01;68.33;99428.91;102845;1310;71975;-66
2021/12/19 14:30:26;;;;;;;6.20;1.70;;;;;;;3.00;67.94;99440.90;102527;1310;59436;-65